AJO weather

Corona Municipal Airport
Corona, California, United States

Public forecast

Using degrees Fahrenheit for public forecast. Weather courtesy of forecast.io.

METAR (pilot weather report)

Retrieved 2019/09/19 00:56 UTC (47 minutes ago):

KAJO 190056Z AUTO 29009KT 10SM CLR 25/16 A2985 RMK AO2 SLP102 T02500156

TAF (pilot weather forecast)

Forecast is more than 12 hours old.

Closest forecast is Ontario International Airport, 9.5 nm (17.6 km) N. Retrieved 2019/09/18 00:24 UTC (1 day ago):

TAF KONT 182323Z 1900/2006 25011KT P6SM SKC FM190500 VRB04KT P6SM SKC FM191200 VRB03KT 4SM BR BKN007 FM191530 25006KT 6SM HZ SCT009 FM192200 25011KT P6SM SKC